Time;durP1;ratioP1;P1;durP2;ratioP2;P2;SDS_P1;SDS_P2;PMS_P1;PMS_P2;Temp;Humidity;BMP_temperature;BMP_pressure;BME280_temperature;BME280_humidity;BME280_pressure;Samples;Min_cycle;Max_cycle;Signal;HPM_P1;HPM_P2
2023/02/03 00:00:05;;;;;;;1.23;0.50;;;;;;;9.07;99.00;101389.34;5054847;28;20447;-53
2023/02/03 00:02:31;;;;;;;0.67;0.67;;;;;;;9.13;98.83;101387.53;5054544;28;20935;-54
2023/02/03 00:04:58;;;;;;;0.40;0.30;;;;;;;9.12;98.92;101398.16;5054773;28;20450;-54
2023/02/03 00:07:24;;;;;;;1.00;0.57;;;;;;;8.98;99.40;101399.97;5054789;28;20450;-55
2023/02/03 00:09:51;;;;;;;0.60;0.30;;;;;;;8.99;99.12;101393.78;5054590;28;20494;-53
2023/02/03 00:12:17;;;;;;;0.50;0.40;;;;;;;9.17;99.69;101397.22;5054659;28;20455;-53
2023/02/03 00:14:44;;;;;;;0.40;0.30;;;;;;;9.02;100.00;101397.31;5054181;28;20482;-53
2023/02/03 00:17:10;;;;;;;0.30;0.30;;;;;;;9.05;100.00;101380.53;5049182;28;20451;-54
2023/02/03 00:19:37;;;;;;;0.50;0.40;;;;;;;9.08;100.00;101369.91;5052423;28;20488;-53
2023/02/03 00:22:03;;;;;;;0.83;0.40;;;;;;;9.07;100.00;101358.41;5054679;28;20803;-53
2023/02/03 00:24:29;;;;;;;0.83;0.63;;;;;;;9.14;100.00;101348.63;5054228;28;20524;-53
2023/02/03 00:26:56;;;;;;;0.70;0.70;;;;;;;9.09;100.00;101353.97;5054422;28;20872;-54
2023/02/03 00:29:24;;;;;;;0.60;0.60;;;;;;;9.04;99.85;101368.13;5053819;28;20859;-53
2023/02/03 00:31:52;;;;;;;11.97;1.67;;;;;;;9.11;99.62;101370.75;5054218;28;20451;-53
2023/02/03 00:34:19;;;;;;;0.50;0.50;;;;;;;8.97;100.00;101369.94;5054180;28;20475;-55
2023/02/03 00:36:47;;;;;;;1.63;0.30;;;;;;;9.00;99.81;101369.03;5054313;28;20908;-53
2023/02/03 00:39:14;;;;;;;0.50;0.33;;;;;;;9.05;99.54;101384.06;5053986;28;20447;-53
2023/02/03 00:41:41;;;;;;;0.57;0.47;;;;;;;8.95;99.92;101390.28;5054171;28;20454;-53
2023/02/03 00:44:07;;;;;;;0.43;0.40;;;;;;;9.17;99.88;101377.78;5053748;28;20554;-54
2023/02/03 00:46:37;;;;;;;0.70;0.20;;;;;;;9.10;99.32;101374.28;5053991;28;20457;-54
2023/02/03 00:49:03;;;;;;;2.67;1.33;;;;;;;9.28;98.96;101372.41;5041652;28;20543;-55
2023/02/03 00:51:30;;;;;;;0.73;0.30;;;;;;;9.12;99.76;101382.25;5053754;28;20447;-53
2023/02/03 00:53:57;;;;;;;0.30;0.20;;;;;;;9.12;99.72;101392.84;5050574;28;20479;-52
2023/02/03 00:56:23;;;;;;;0.40;0.30;;;;;;;9.12;99.53;101371.63;5053600;28;20943;-53
2023/02/03 00:58:49;;;;;;;0.40;0.30;;;;;;;9.21;99.18;101371.59;5053654;28;20548;-53
2023/02/03 01:01:16;;;;;;;0.73;0.70;;;;;;;9.40;98.97;101364.38;5053550;28;20451;-54
2023/02/03 01:03:43;;;;;;;0.40;0.30;;;;;;;9.29;99.19;101342.34;5053605;28;20474;-53
2023/02/03 01:06:13;;;;;;;0.40;0.37;;;;;;;9.40;98.48;101333.44;5053568;28;20483;-54
2023/02/03 01:08:39;;;;;;;0.77;0.77;;;;;;;9.22;98.88;101343.28;5053545;28;20447;-54
2023/02/03 01:11:17;;;;;;;0.50;0.40;;;;;;;9.24;98.66;101334.44;5053108;28;21014;-54
2023/02/03 01:13:44;;;;;;;0.30;0.20;;;;;;;9.24;98.91;101326.47;5053462;28;20488;-53
2023/02/03 01:16:14;;;;;;;0.60;0.30;;;;;;;9.38;98.51;101315.75;5053502;28;20454;-53
2023/02/03 01:18:41;;;;;;;0.73;0.40;;;;;;;9.24;99.43;101302.59;5048181;28;20461;-53
2023/02/03 01:21:16;;;;;;;0.30;0.20;;;;;;;9.37;99.24;101309.56;5053213;28;20442;-54
2023/02/03 01:23:43;;;;;;;0.50;0.33;;;;;;;9.29;100.00;101306.09;5052981;28;20462;-53
2023/02/03 01:26:13;;;;;;;0.30;0.20;;;;;;;9.21;100.00;101307.94;5053158;28;20872;-53
2023/02/03 01:28:40;;;;;;;0.37;0.30;;;;;;;9.29;100.00;101323.78;5052837;28;20453;-53
2023/02/03 01:31:15;;;;;;;1.33;1.07;;;;;;;9.33;100.00;101323.75;5035441;28;20556;-54
2023/02/03 01:33:45;;;;;;;0.30;0.20;;;;;;;9.24;100.00;101322.94;5052700;28;21079;-55
2023/02/03 01:36:12;;;;;;;0.40;0.30;;;;;;;9.26;100.00;101322.03;5052880;28;20477;-53
2023/02/03 01:38:38;;;;;;;0.60;0.60;;;;;;;9.22;100.00;101330.03;5052679;28;20959;-55
2023/02/03 01:41:07;;;;;;;0.40;0.30;;;;;;;9.23;100.00;101322.06;5053089;28;20472;-53
2023/02/03 01:43:39;;;;;;;0.30;0.20;;;;;;;9.24;100.00;101309.66;5052774;28;20528;-53
2023/02/03 01:46:27;;;;;;;0.50;0.40;;;;;;;9.14;100.00;101317.69;5052800;28;21010;-55
2023/02/03 01:49:00;;;;;;;0.30;0.30;;;;;;;9.33;100.00;101313.16;5040248;28;20447;-53
2023/02/03 01:51:27;;;;;;;0.40;0.37;;;;;;;9.12;100.00;101311.50;5052644;28;20443;-53
2023/02/03 01:53:54;;;;;;;0.30;0.20;;;;;;;9.32;100.00;101302.53;5049293;28;20513;-53
2023/02/03 01:56:22;;;;;;;0.50;0.40;;;;;;;9.20;100.00;101308.81;5052663;28;20451;-55
2023/02/03 01:58:49;;;;;;;0.50;0.30;;;;;;;9.26;100.00;101306.09;5052611;28;20524;-53
2023/02/03 02:01:16;;;;;;;8.47;0.80;;;;;;;9.27;100.00;101305.22;5052197;28;20453;-54
2023/02/03 02:03:51;;;;;;;0.30;0.20;;;;;;;9.30;100.00;101304.31;5052578;28;20471;-54
2023/02/03 02:06:17;;;;;;;0.40;0.20;;;;;;;9.19;100.00;101292.03;5052466;28;20959;-53
2023/02/03 02:08:49;;;;;;;0.73;0.67;;;;;;;9.35;100.00;101298.09;5052495;28;20819;-54
2023/02/03 02:11:17;;;;;;;0.30;0.27;;;;;;;9.16;100.00;101297.31;5052318;28;20493;-53
2023/02/03 02:13:44;;;;;;;0.30;0.20;;;;;;;9.26;100.00;101295.50;5052695;28;20478;-56
2023/02/03 02:16:21;;;;;;;0.67;0.30;;;;;;;9.22;100.00;101285.81;5052386;28;20447;-57
2023/02/03 02:19:01;;;;;;;0.43;0.30;;;;;;;9.36;100.00;101294.53;5046980;28;20504;-56
2023/02/03 02:21:36;;;;;;;0.30;0.20;;;;;;;9.26;100.00;101291.97;5039562;28;20497;-56
2023/02/03 02:24:27;;;;;;;0.70;0.40;;;;;;;9.35;100.00;101289.25;5051992;28;20847;-56
2023/02/03 02:26:59;;;;;;;0.30;0.20;;;;;;;9.40;100.00;101288.31;5052484;28;20476;-56
2023/02/03 02:30:04;;;;;;;0.50;0.40;;;;;;;9.50;100.00;101295.31;5052172;28;20486;-56
2023/02/03 02:32:35;;;;;;;0.30;0.20;;;;;;;9.22;100.00;101306.16;4951704;29;20509;-55
2023/02/03 02:35:02;;;;;;;0.40;0.27;;;;;;;9.39;100.00;101318.41;5032596;28;20447;-56
2023/02/03 02:38:03;;;;;;;0.50;0.50;;;;;;;9.49;100.00;101328.06;5052307;28;20451;-56
2023/02/03 02:40:58;;;;;;;0.50;0.30;;;;;;;9.28;100.00;101336.16;5052786;28;20943;-55
2023/02/03 02:43:38;;;;;;;0.40;0.30;;;;;;;9.32;100.00;101323.75;5056240;28;20470;-55
2023/02/03 02:46:13;;;;;;;0.30;0.20;;;;;;;9.33;100.00;101322.88;5056126;28;20450;-57
2023/02/03 02:48:44;;;;;;;0.30;0.20;;;;;;;9.36;100.00;101323.75;5043961;28;20461;-56
2023/02/03 02:51:14;;;;;;;0.47;0.37;;;;;;;9.36;100.00;101333.47;5056098;28;20845;-56
2023/02/03 02:53:48;;;;;;;0.50;0.40;;;;;;;9.20;100.00;101336.22;5052663;28;20483;-56
2023/02/03 02:56:17;;;;;;;0.40;0.30;;;;;;;9.29;100.00;101340.56;5056101;28;20454;-56
2023/02/03 02:58:48;;;;;;;0.30;0.20;;;;;;;9.37;100.00;101349.38;5055897;28;20504;-55
2023/02/03 03:01:15;;;;;;;0.90;0.70;;;;;;;9.46;100.00;101349.31;5055677;28;20454;-56
2023/02/03 03:03:44;;;;;;;0.47;0.33;;;;;;;9.26;100.00;101358.28;5055671;28;20474;-55
2023/02/03 03:06:36;;;;;;;0.40;0.30;;;;;;;9.24;100.00;101362.72;5055669;28;20978;-56
2023/02/03 03:09:25;;;;;;;0.40;0.30;;;;;;;9.31;100.00;101365.31;5055920;28;20446;-56
2023/02/03 03:11:58;;;;;;;0.50;0.40;;;;;;;9.12;100.00;101353.94;5044545;28;20928;-56
2023/02/03 03:14:30;;;;;;;0.60;0.40;;;;;;;9.11;100.00;101359.25;5055614;28;20543;-56
2023/02/03 03:17:01;;;;;;;0.30;0.20;;;;;;;9.23;100.00;101353.00;5053540;28;20454;-55
2023/02/03 03:19:34;;;;;;;0.40;0.20;;;;;;;9.32;100.00;101342.31;5053482;28;20442;-56
2023/02/03 03:22:04;;;;;;;0.30;0.20;;;;;;;9.35;100.00;101326.41;5037914;28;20442;-56
2023/02/03 03:24:36;;;;;;;0.30;0.23;;;;;;;9.27;100.00;101322.91;5055179;28;20983;-56
2023/02/03 03:27:21;;;;;;;0.50;0.33;;;;;;;9.30;100.00;101314.91;5055719;28;20504;-56
2023/02/03 03:29:53;;;;;;;0.30;0.20;;;;;;;9.44;100.00;101313.94;5044688;28;20490;-56
2023/02/03 03:32:20;;;;;;;0.30;0.20;;;;;;;9.42;100.00;101310.41;5055404;28;20469;-56
2023/02/03 03:34:47;;;;;;;0.30;0.20;;;;;;;9.47;100.00;101315.72;5055396;28;20881;-55
2023/02/03 03:37:18;;;;;;;0.77;0.50;;;;;;;9.40;100.00;101316.63;5055508;28;20446;-56
2023/02/03 03:39:54;;;;;;;0.50;0.33;;;;;;;9.26;100.00;101318.50;5055483;28;20533;-56
2023/02/03 03:42:45;;;;;;;0.50;0.20;;;;;;;9.25;100.00;101314.97;5055139;28;20453;-56
2023/02/03 03:45:27;;;;;;;0.50;0.30;;;;;;;9.25;100.00;101311.44;5037194;28;20446;-54
2023/02/03 03:48:11;;;;;;;0.43;0.30;;;;;;;9.20;100.00;101314.13;5045200;28;20497;-56
2023/02/03 03:50:44;;;;;;;0.30;0.20;;;;;;;9.11;100.00;101323.00;5041664;28;20986;-56
2023/02/03 03:53:12;;;;;;;0.40;0.27;;;;;;;9.22;100.00;101324.72;5050854;28;20561;-56
2023/02/03 03:55:39;;;;;;;0.30;0.20;;;;;;;9.26;100.00;101329.97;5054791;28;20457;-55
2023/02/03 03:58:11;;;;;;;1.23;0.90;;;;;;;9.45;100.00;101338.69;5055015;28;20450;-56
2023/02/03 04:00:40;;;;;;;0.77;0.50;;;;;;;9.33;99.82;101339.69;5054892;28;20453;-56
2023/02/03 04:03:20;;;;;;;0.40;0.30;;;;;;;9.35;99.62;101339.66;5054677;28;20475;-55
2023/02/03 04:05:47;;;;;;;1.07;0.97;;;;;;;9.34;100.00;101327.28;5054758;28;20451;-56
2023/02/03 04:08:13;;;;;;;0.40;0.30;;;;;;;9.36;100.00;101320.22;5054430;28;20827;-55
2023/02/03 04:10:41;;;;;;;0.30;0.30;;;;;;;9.29;100.00;101316.69;5054700;28;20582;-56
2023/02/03 04:13:09;;;;;;;0.40;0.30;;;;;;;9.23;100.00;101314.09;5054629;28;20844;-56
2023/02/03 04:15:36;;;;;;;1.07;0.43;;;;;;;9.30;100.00;101312.25;5054692;28;20449;-55
2023/02/03 04:18:03;;;;;;;0.40;0.30;;;;;;;9.24;100.00;101313.19;5048099;28;20447;-56
2023/02/03 04:20:31;;;;;;;0.73;0.73;;;;;;;9.18;100.00;101316.78;5054414;28;20529;-56
2023/02/03 04:22:58;;;;;;;0.30;0.20;;;;;;;9.27;100.00;101313.19;5054295;28;20471;-54
2023/02/03 04:25:25;;;;;;;0.30;0.20;;;;;;;9.31;100.00;101314.91;5054285;28;21070;-56
2023/02/03 04:27:51;;;;;;;0.57;0.30;;;;;;;9.22;100.00;101312.34;5054240;28;20457;-55
2023/02/03 04:30:18;;;;;;;0.53;0.40;;;;;;;9.25;100.00;101319.38;5054333;28;20490;-56
2023/02/03 04:32:45;;;;;;;0.50;0.40;;;;;;;9.17;100.00;101315.00;5054104;28;20450;-56
2023/02/03 04:35:12;;;;;;;0.30;0.20;;;;;;;9.12;100.00;101326.53;5054153;28;20446;-56
2023/02/03 04:37:38;;;;;;;0.40;0.30;;;;;;;9.00;100.00;101310.69;5053893;28;20451;-56
2023/02/03 04:40:05;;;;;;;0.30;0.20;;;;;;;9.11;100.00;101316.81;5054008;28;20916;-56
2023/02/03 04:42:32;;;;;;;2.80;0.50;;;;;;;9.22;100.00;101304.38;5054049;28;20454;-56
2023/02/03 04:44:58;;;;;;;0.40;0.30;;;;;;;9.15;100.00;101300.00;5054124;28;20790;-56
2023/02/03 04:47:25;;;;;;;0.30;0.20;;;;;;;9.15;100.00;101295.56;5035175;28;20448;-56
2023/02/03 04:49:51;;;;;;;0.30;0.20;;;;;;;9.24;100.00;101288.44;5047922;28;20462;-56
2023/02/03 04:52:18;;;;;;;0.40;0.33;;;;;;;9.19;100.00;101284.06;5054061;28;20447;-56
2023/02/03 04:54:44;;;;;;;0.43;0.33;;;;;;;9.20;100.00;101282.28;5050419;28;20475;-55
2023/02/03 04:57:10;;;;;;;2.53;0.47;;;;;;;9.10;100.00;101289.41;5054018;28;20618;-55
2023/02/03 04:59:37;;;;;;;0.40;0.30;;;;;;;9.09;100.00;101302.69;5053583;28;20482;-56
2023/02/03 05:02:04;;;;;;;0.80;0.50;;;;;;;9.26;100.00;101302.56;5053699;28;20462;-56
2023/02/03 05:04:31;;;;;;;0.40;0.40;;;;;;;9.25;100.00;101303.47;5052771;28;21072;-56
2023/02/03 05:06:57;;;;;;;4.20;0.40;;;;;;;9.19;100.00;101313.25;5053873;28;20458;-56
2023/02/03 05:09:24;;;;;;;0.70;0.53;;;;;;;9.46;100.00;101313.94;5053334;28;20445;-56
2023/02/03 05:11:51;;;;;;;13.93;0.73;;;;;;;9.39;99.67;101329.00;5053516;28;20558;-56
2023/02/03 05:14:17;;;;;;;0.50;0.40;;;;;;;9.16;100.00;101328.28;5053278;28;21022;-56
2023/02/03 05:16:44;;;;;;;0.50;0.33;;;;;;;9.16;100.00;101296.44;5052680;28;20451;-56
2023/02/03 05:19:12;;;;;;;0.30;0.20;;;;;;;9.27;100.00;101304.34;5048619;28;20447;-56
2023/02/03 05:21:38;;;;;;;0.30;0.20;;;;;;;9.34;100.00;101283.06;5053538;28;20457;-56
2023/02/03 05:24:06;;;;;;;0.30;0.20;;;;;;;9.21;99.96;101299.97;5053127;28;21024;-55
2023/02/03 05:26:34;;;;;;;0.40;0.37;;;;;;;9.14;100.00;101279.66;5053146;28;20451;-56
2023/02/03 05:29:01;;;;;;;1.03;0.40;;;;;;;9.36;99.61;101272.44;5052865;28;20965;-55
2023/02/03 05:31:27;;;;;;;0.60;0.40;;;;;;;9.37;98.88;101285.69;5052961;28;20533;-56
2023/02/03 05:33:54;;;;;;;0.30;0.20;;;;;;;9.22;100.00;101300.84;5052678;28;20482;-56
2023/02/03 05:36:20;;;;;;;2.70;0.70;;;;;;;9.29;100.00;101311.38;5052800;28;20454;-56
2023/02/03 05:38:47;;;;;;;0.40;0.30;;;;;;;9.32;100.00;101300.78;5053032;28;20455;-56
2023/02/03 05:43:59;;;;;;;0.50;0.40;;;;;;;9.48;99.42;101291.81;5052506;28;20502;-56
2023/02/03 05:46:25;;;;;;;0.50;0.40;;;;;;;9.46;99.72;101272.38;5052871;28;20484;-56
2023/02/03 05:48:51;;;;;;;0.30;0.30;;;;;;;9.37;99.72;101268.91;5040463;28;20447;-56
2023/02/03 05:51:18;;;;;;;5.80;1.13;;;;;;;9.37;99.88;101292.78;5052669;28;20492;-56
2023/02/03 05:53:44;;;;;;;0.50;0.50;;;;;;;9.42;99.80;101286.53;5049184;28;20485;-56
2023/02/03 05:56:11;;;;;;;0.40;0.30;;;;;;;9.31;99.36;101285.72;5052482;28;20546;-56
2023/02/03 05:58:37;;;;;;;2.60;0.50;;;;;;;9.33;99.98;101275.13;5052413;28;20446;-56
2023/02/03 06:01:04;;;;;;;7.20;1.23;;;;;;;9.11;100.00;101283.22;5052637;28;20439;-56
2023/02/03 06:03:30;;;;;;;0.30;0.20;;;;;;;9.27;99.97;101277.81;5052075;28;21106;-56
2023/02/03 06:05:57;;;;;;;1.37;1.00;;;;;;;9.36;99.70;101269.78;5052378;28;20456;-56
2023/02/03 06:08:27;;;;;;;0.60;0.30;;;;;;;9.34;99.65;101266.28;5052598;28;20465;-56
2023/02/03 06:10:58;;;;;;;0.33;0.33;;;;;;;9.42;99.61;101269.72;5052383;28;20494;-56
2023/02/03 06:13:25;;;;;;;0.40;0.30;;;;;;;9.49;99.44;101255.53;5039782;28;20482;-56
2023/02/03 06:15:52;;;;;;;0.40;0.27;;;;;;;9.38;99.45;101254.72;5051216;28;20462;-56
2023/02/03 06:18:18;;;;;;;0.30;0.20;;;;;;;9.31;99.93;101260.97;5045795;28;20451;-55
2023/02/03 06:20:45;;;;;;;0.30;0.20;;;;;;;9.20;99.54;101254.00;5052790;28;20485;-55
2023/02/03 06:23:12;;;;;;;0.93;0.77;;;;;;;9.30;99.25;101243.28;5052304;28;20466;-56
2023/02/03 06:25:38;;;;;;;0.30;0.20;;;;;;;9.30;98.79;101254.78;5052297;28;20478;-55
2023/02/03 06:28:05;;;;;;;0.30;0.20;;;;;;;9.40;98.47;101247.63;5052439;28;20925;-56
2023/02/03 06:30:31;;;;;;;0.30;0.30;;;;;;;9.40;98.29;101253.81;5052182;28;20525;-56
2023/02/03 06:32:57;;;;;;;0.50;0.40;;;;;;;9.36;98.13;101262.72;5052284;28;20557;-56
2023/02/03 06:35:24;;;;;;;0.37;0.23;;;;;;;9.43;97.65;101251.13;5052257;28;20461;-56
2023/02/03 06:37:51;;;;;;;0.97;0.20;;;;;;;9.37;97.37;101259.16;5052671;28;20461;-56
2023/02/03 06:40:18;;;;;;;0.30;0.20;;;;;;;9.52;97.55;101255.50;5051864;28;20839;-57
2023/02/03 06:42:46;;;;;;;0.40;0.20;;;;;;;9.45;96.76;101259.97;5051925;28;20846;-57
2023/02/03 06:45:13;;;;;;;3.40;0.30;;;;;;;9.55;96.50;101271.38;5052263;28;20453;-56
2023/02/03 06:47:41;;;;;;;0.30;0.20;;;;;;;9.46;96.18;101277.66;5043833;28;20457;-57
2023/02/03 06:50:09;;;;;;;0.30;0.20;;;;;;;9.57;96.04;101280.22;5048164;28;20459;-56
2023/02/03 06:52:36;;;;;;;0.40;0.30;;;;;;;9.60;95.97;101300.56;5052025;28;20490;-56
2023/02/03 06:55:04;;;;;;;0.50;0.40;;;;;;;9.70;95.02;101287.19;5031899;28;20451;-57
2023/02/03 06:57:31;;;;;;;2.50;0.60;;;;;;;9.46;95.60;101296.25;5032294;28;20837;-56
2023/02/03 06:59:58;;;;;;;0.47;0.47;;;;;;;9.48;95.54;101313.03;5032231;28;20451;-56
2023/02/03 07:02:24;;;;;;;0.73;0.50;;;;;;;9.58;95.62;101300.56;5032021;28;20454;-56
2023/02/03 07:04:51;;;;;;;0.57;0.43;;;;;;;9.43;95.50;101290.06;5031932;28;20848;-60
2023/02/03 07:07:17;;;;;;;1.80;0.40;;;;;;;9.55;95.69;101299.69;5031943;28;20857;-56
2023/02/03 07:09:44;;;;;;;1.33;0.83;;;;;;;9.64;95.09;101302.28;5032067;28;20462;-56
2023/02/03 07:12:10;;;;;;;0.97;0.97;;;;;;;9.48;95.13;101318.34;5031933;28;20498;-56
2023/02/03 07:14:38;;;;;;;0.30;0.20;;;;;;;9.52;95.33;101331.59;5031717;28;20475;-56
2023/02/03 07:17:05;;;;;;;0.50;0.40;;;;;;;9.65;94.89;101326.16;5031730;28;20453;-56
2023/02/03 07:19:32;;;;;;;0.40;0.30;;;;;;;9.59;95.37;101335.94;5031696;28;20482;-56
2023/02/03 07:21:59;;;;;;;0.77;0.33;;;;;;;9.69;94.28;101333.19;5031771;28;20447;-56
2023/02/03 07:24:25;;;;;;;4.83;0.30;;;;;;;9.49;95.01;101330.72;5031783;28;20507;-56
2023/02/03 07:26:52;;;;;;;0.40;0.20;;;;;;;9.46;95.03;101327.22;5033323;28;20770;-55
2023/02/03 07:29:18;;;;;;;0.60;0.43;;;;;;;9.56;94.83;101320.03;5035494;28;20538;-57
2023/02/03 07:31:45;;;;;;;0.30;0.20;;;;;;;9.69;93.97;101327.91;5035396;28;20570;-56
2023/02/03 07:34:11;;;;;;;0.40;0.27;;;;;;;9.54;94.77;101321.84;5035306;28;20471;-56
2023/02/03 07:36:38;;;;;;;1.07;0.63;;;;;;;9.54;94.69;101317.41;5035228;28;20444;-56
2023/02/03 07:39:04;;;;;;;0.50;0.37;;;;;;;9.53;94.94;101315.66;5035500;28;20478;-56
2023/02/03 07:41:31;;;;;;;0.50;0.50;;;;;;;9.64;94.54;101331.50;5035133;28;20823;-56
2023/02/03 07:43:57;;;;;;;0.30;0.20;;;;;;;9.70;94.04;101328.78;5034973;28;20482;-56
2023/02/03 07:46:24;;;;;;;0.40;0.30;;;;;;;9.70;93.78;101323.47;5035115;28;20458;-56
2023/02/03 07:48:50;;;;;;;0.40;0.30;;;;;;;9.68;94.10;101320.81;5041904;28;20450;-56
2023/02/03 07:51:17;;;;;;;0.50;0.30;;;;;;;9.69;94.38;101327.91;5054758;28;20490;-56
2023/02/03 07:53:44;;;;;;;1.53;0.20;;;;;;;9.62;93.73;101325.31;5051453;28;20478;-56
2023/02/03 07:56:11;;;;;;;0.30;0.20;;;;;;;9.77;93.18;101314.56;5054943;28;20670;-56
2023/02/03 07:58:37;;;;;;;0.63;0.53;;;;;;;9.78;92.65;101316.31;5054637;28;20451;-56
2023/02/03 08:01:15;;;;;;;0.40;0.30;;;;;;;9.85;92.80;101333.06;5055043;28;20454;-56
2023/02/03 08:03:42;;;;;;;0.50;0.30;;;;;;;9.82;92.50;101333.97;5043048;28;21022;-56
2023/02/03 08:06:08;;;;;;;0.30;0.20;;;;;;;9.71;93.03;101333.19;5054647;28;20451;-56
2023/02/03 08:08:35;;;;;;;0.43;0.30;;;;;;;9.75;92.30;101340.25;5054826;28;20451;-56
2023/02/03 08:11:02;;;;;;;0.30;0.20;;;;;;;9.77;92.72;101334.03;5054481;28;20490;-56
2023/02/03 08:13:28;;;;;;;3.73;0.70;;;;;;;9.78;92.05;101337.56;5055333;28;20482;-58
2023/02/03 08:15:55;;;;;;;0.73;0.30;;;;;;;9.81;92.03;101345.50;5054397;28;20477;-58
2023/02/03 08:18:21;;;;;;;0.40;0.30;;;;;;;9.79;91.66;101334.00;5048862;28;20512;-58
2023/02/03 08:20:48;;;;;;;0.40;0.30;;;;;;;9.76;91.57;101326.97;5054604;28;20459;-58
2023/02/03 08:23:15;;;;;;;0.50;0.30;;;;;;;9.79;91.22;101340.22;5054492;28;20497;-58
2023/02/03 08:25:41;;;;;;;0.30;0.23;;;;;;;9.72;91.89;101333.16;5023593;28;20444;-58
2023/02/03 08:28:08;;;;;;;0.47;0.30;;;;;;;9.78;91.46;101333.13;5054338;28;20454;-58
2023/02/03 08:30:35;;;;;;;1.03;0.93;;;;;;;9.94;91.12;101325.91;5054145;28;20457;-58
2023/02/03 08:33:01;;;;;;;0.50;0.27;;;;;;;9.88;91.01;101323.31;5054022;28;20506;-58
2023/02/03 08:35:28;;;;;;;0.50;0.40;;;;;;;9.91;90.87;101317.97;5054112;28;20516;-58
2023/02/03 08:37:54;;;;;;;0.50;0.40;;;;;;;10.04;90.19;101326.72;5053356;28;20450;-58
2023/02/03 08:40:21;;;;;;;0.30;0.20;;;;;;;10.07;89.79;101314.28;5053738;28;20546;-58
2023/02/03 08:42:47;;;;;;;0.40;0.30;;;;;;;10.00;89.92;101319.66;5054107;28;20467;-58
2023/02/03 08:45:13;;;;;;;0.50;0.20;;;;;;;10.02;89.49;101318.75;5036143;28;20461;-58
2023/02/03 08:47:40;;;;;;;1.30;0.30;;;;;;;10.10;89.32;101316.00;5045704;28;20633;-58
2023/02/03 08:50:08;;;;;;;19.53;0.73;;;;;;;9.98;89.70;101313.47;5049929;28;21128;-57
2023/02/03 08:52:34;;;;;;;0.40;0.30;;;;;;;10.18;89.46;101327.47;5053413;28;20493;-58
2023/02/03 08:55:01;;;;;;;0.43;0.40;;;;;;;10.12;88.94;101314.22;5049831;28;20462;-58
2023/02/03 08:57:32;;;;;;;1.13;1.13;;;;;;;10.30;88.52;101315.84;5053611;28;20962;-58
2023/02/03 08:59:59;;;;;;;0.40;0.20;;;;;;;10.25;88.27;101315.00;5053340;28;20443;-58
2023/02/03 09:02:25;;;;;;;0.50;0.50;;;;;;;10.10;88.37;101316.88;5053706;28;20457;-58
2023/02/03 09:04:52;;;;;;;0.40;0.30;;;;;;;10.15;89.04;101316.00;5053285;28;20463;-58
2023/02/03 09:07:18;;;;;;;0.30;0.20;;;;;;;10.11;88.94;101315.13;5053620;28;20475;-58
2023/02/03 09:09:45;;;;;;;0.30;0.20;;;;;;;10.27;88.96;101322.06;5053284;28;20458;-58
2023/02/03 09:12:11;;;;;;;8.90;0.80;;;;;;;10.26;88.47;101314.09;5035600;28;20490;-57
2023/02/03 09:14:38;;;;;;;2.50;0.40;;;;;;;10.28;88.62;101333.56;5052875;28;20474;-58
2023/02/03 09:17:07;;;;;;;0.43;0.30;;;;;;;10.22;87.82;101333.66;5049908;28;20881;-57
2023/02/03 09:19:34;;;;;;;0.40;0.30;;;;;;;10.38;88.23;101335.22;5051384;28;20459;-58
2023/02/03 09:22:02;;;;;;;0.30;0.30;;;;;;;10.43;87.89;101332.56;5053205;28;20528;-58
2023/02/03 09:24:29;;;;;;;1.90;0.40;;;;;;;10.49;87.44;101321.84;5053086;28;20470;-58
2023/02/03 09:26:56;;;;;;;9.33;0.40;;;;;;;10.44;87.14;101319.25;5053057;28;20454;-58
2023/02/03 09:29:22;;;;;;;0.53;0.53;;;;;;;10.63;87.05;101306.59;5053125;28;20450;-58
2023/02/03 09:31:51;;;;;;;0.50;0.30;;;;;;;10.39;87.07;101292.69;5053188;28;20555;-58
2023/02/03 09:34:19;;;;;;;3.03;0.30;;;;;;;10.37;87.65;101286.53;5052787;28;20846;-58
2023/02/03 09:36:46;;;;;;;1.07;0.97;;;;;;;10.51;87.44;101296.09;5053144;28;20865;-57
2023/02/03 09:39:12;;;;;;;2.83;0.53;;;;;;;10.55;87.39;101306.72;5052944;28;20451;-58
2023/02/03 09:42:09;;;;;;;3.43;0.93;;;;;;;10.61;87.03;101303.97;5052919;28;20936;-58
2023/02/03 09:44:49;;;;;;;1.13;1.07;;;;;;;10.55;87.28;101304.06;5043069;28;20478;-58
2023/02/03 09:47:24;;;;;;;0.30;0.20;;;;;;;10.52;87.09;101305.84;5048054;28;20446;-57
2023/02/03 09:49:54;;;;;;;0.30;0.20;;;;;;;10.48;86.76;101306.78;5046667;28;20450;-58
2023/02/03 09:52:32;;;;;;;0.30;0.20;;;;;;;10.48;86.58;101318.28;5052990;28;20494;-58
2023/02/03 09:54:59;;;;;;;8.23;0.63;;;;;;;10.52;86.74;101311.16;5049222;28;20471;-58
2023/02/03 09:57:28;;;;;;;0.40;0.20;;;;;;;10.60;86.63;101317.28;5052802;28;20457;-58
2023/02/03 09:59:58;;;;;;;0.30;0.20;;;;;;;10.57;86.87;101307.56;5052592;28;20451;-58
2023/02/03 10:02:46;;;;;;;0.90;0.77;;;;;;;10.62;87.03;101292.41;5052478;28;20442;-58
2023/02/03 10:05:52;;;;;;;0.30;0.20;;;;;;;10.73;86.85;101294.06;5032844;28;20456;-58
2023/02/03 10:08:40;;;;;;;0.40;0.30;;;;;;;10.73;86.39;101289.63;5032569;28;20447;-56
2023/02/03 10:11:39;;;;;;;0.40;0.30;;;;;;;10.77;85.96;101301.97;5032455;28;20539;-58
2023/02/03 10:14:26;;;;;;;4.03;0.97;;;;;;;10.58;86.16;101313.75;5032523;28;20491;-58
2023/02/03 10:17:10;;;;;;;0.40;0.30;;;;;;;10.77;86.04;101309.97;5032468;28;20502;-58
2023/02/03 10:19:40;;;;;;;0.53;0.40;;;;;;;10.72;86.04;101306.50;5032684;28;20871;-58
2023/02/03 10:22:13;;;;;;;0.70;0.70;;;;;;;10.57;86.05;101298.72;5032589;28;20440;-58
2023/02/03 10:24:49;;;;;;;0.50;0.30;;;;;;;10.77;85.60;101304.63;5032314;28;20478;-58
2023/02/03 10:27:19;;;;;;;0.57;0.40;;;;;;;10.65;85.90;101296.81;5032310;28;20447;-58
2023/02/03 10:29:53;;;;;;;0.30;0.30;;;;;;;10.63;85.78;101290.63;5032314;28;20447;-58
2023/02/03 10:32:20;;;;;;;0.43;0.30;;;;;;;10.71;85.68;101291.44;5032608;28;20494;-58
2023/02/03 10:34:47;;;;;;;0.50;0.37;;;;;;;10.73;85.76;101278.13;5032541;28;20474;-58
2023/02/03 10:37:38;;;;;;;27.57;0.50;;;;;;;10.72;85.98;101271.91;5032272;28;20483;-58
2023/02/03 10:40:04;;;;;;;5.83;0.50;;;;;;;10.81;85.94;101276.22;5032316;28;20455;-58
2023/02/03 10:45:19;;;;;;;0.60;0.43;;;;;;;10.88;85.55;101284.09;5032324;28;20452;-58
2023/02/03 10:47:56;;;;;;;0.77;0.50;;;;;;;10.80;86.30;101277.13;5033280;28;20447;-58
2023/02/03 10:50:30;;;;;;;0.90;0.60;;;;;;;10.75;86.51;101271.88;5050354;28;20499;-58
2023/02/03 10:53:30;;;;;;;0.30;0.20;;;;;;;10.76;86.02;101283.38;5049201;28;20526;-58
2023/02/03 10:56:12;;;;;;;0.40;0.30;;;;;;;10.77;86.27;101283.38;5042989;28;20537;-58
2023/02/03 10:58:46;;;;;;;0.40;0.20;;;;;;;10.88;86.30;101291.19;5051727;28;20447;-58
2023/02/03 11:01:15;;;;;;;0.40;0.20;;;;;;;10.78;86.54;101282.47;5052487;28;20811;-58
2023/02/03 11:03:52;;;;;;;0.30;0.30;;;;;;;10.80;86.28;101278.00;5055992;28;20473;-58
2023/02/03 11:06:19;;;;;;;0.70;0.60;;;;;;;10.77;86.24;101282.50;5055941;28;20464;-58
2023/02/03 11:08:48;;;;;;;0.40;0.30;;;;;;;10.79;86.30;101264.72;5056094;28;20550;-58
2023/02/03 11:11:31;;;;;;;0.40;0.30;;;;;;;10.70;86.83;101272.84;5055530;28;20450;-58
2023/02/03 11:14:03;;;;;;;0.53;0.53;;;;;;;10.66;87.30;101277.31;5055924;28;20486;-58
2023/02/03 11:16:33;;;;;;;0.60;0.37;;;;;;;10.65;87.04;101281.75;5055707;28;20522;-58
2023/02/03 11:19:02;;;;;;;0.40;0.30;;;;;;;10.66;87.36;101274.63;5049273;28;20537;-58
2023/02/03 11:21:37;;;;;;;3.53;0.73;;;;;;;10.55;87.46;101289.84;5055425;28;20486;-58
2023/02/03 11:24:21;;;;;;;0.40;0.30;;;;;;;10.60;88.47;101293.34;5055409;28;20462;-58
2023/02/03 11:26:54;;;;;;;0.40;0.40;;;;;;;10.70;87.46;101299.44;5055657;28;20541;-58
2023/02/03 11:29:28;;;;;;;0.80;0.50;;;;;;;10.62;88.42;101299.53;5055584;28;20443;-58
2023/02/03 11:31:57;;;;;;;0.40;0.27;;;;;;;10.76;88.71;101312.63;5055289;28;20497;-58
2023/02/03 11:34:30;;;;;;;0.50;0.50;;;;;;;10.67;88.80;101311.84;5055145;28;20498;-58
2023/02/03 11:36:57;;;;;;;0.40;0.30;;;;;;;10.68;89.44;101286.13;5055405;28;20451;-58
2023/02/03 11:39:28;;;;;;;0.40;0.30;;;;;;;10.81;88.69;101282.41;5055337;28;20520;-58
2023/02/03 11:41:55;;;;;;;0.30;0.20;;;;;;;10.70;88.74;101275.50;5055179;28;20497;-58
2023/02/03 11:44:29;;;;;;;0.40;0.30;;;;;;;10.87;88.94;101269.03;5054970;28;20470;-57
2023/02/03 11:47:10;;;;;;;0.40;0.20;;;;;;;10.93;89.19;101270.72;5052952;28;20543;-58